createdAt,value
2022-10-18T00:00:01.649Z,23.1
2022-10-18T00:15:05.433Z,23.1
2022-10-18T00:30:04.190Z,23.1
2022-10-18T00:45:03.649Z,23.1
2022-10-18T01:00:05.157Z,23
2022-10-18T01:15:02.436Z,23
2022-10-18T01:30:01.655Z,23
2022-10-18T01:45:05.429Z,22.9
2022-10-18T02:00:05.146Z,22.9
2022-10-18T02:15:03.472Z,22.8
2022-10-18T02:30:04.530Z,22.8
2022-10-18T02:45:03.442Z,22.7
2022-10-18T03:00:03.491Z,22.7
2022-10-18T03:15:04.569Z,22.7
2022-10-18T03:30:01.464Z,22.7
2022-10-18T03:45:04.276Z,22.7
2022-10-18T04:00:03.162Z,22.6
2022-10-18T04:15:03.230Z,22.6
2022-10-18T04:30:02.163Z,22.6
2022-10-18T04:45:02.379Z,22.7
2022-10-18T05:00:04.603Z,22.7
2022-10-18T05:15:04.463Z,22.7
2022-10-18T05:30:01.363Z,22.6
2022-10-18T05:45:05.158Z,22.6
2022-10-18T06:00:03.482Z,22.5
2022-10-18T06:15:03.552Z,22.5
2022-10-18T06:30:05.618Z,22.5
2022-10-18T06:45:01.361Z,22.5
2022-10-18T07:00:04.232Z,22.5
2022-10-18T07:15:03.591Z,22.6
2022-10-18T07:30:02.079Z,22.7
2022-10-18T07:45:02.305Z,22.8
2022-10-18T08:00:04.518Z,23
2022-10-18T08:15:04.460Z,23.1
2022-10-18T08:30:01.439Z,23.1
2022-10-18T08:45:02.124Z,23.1
2022-10-18T09:00:04.381Z,23.2
2022-10-18T09:15:04.237Z,23.2
2022-10-18T09:30:02.367Z,23.2
2022-10-18T09:45:04.503Z,23.2
2022-10-18T10:00:04.179Z,23.2
2022-10-18T10:15:02.656Z,23.2
2022-10-18T10:30:02.305Z,23.2
2022-10-18T10:45:03.523Z,23.2
2022-10-18T11:00:01.682Z,23.2
2022-10-18T11:15:03.381Z,23.2
2022-10-18T11:30:01.376Z,23.3
2022-10-18T11:45:03.214Z,23.2
2022-10-18T12:00:04.259Z,23.2
2022-10-18T12:15:02.171Z,23.3
2022-10-18T12:30:01.358Z,23.3
2022-10-18T12:45:02.151Z,23.3
2022-10-18T13:00:02.410Z,23.3
2022-10-18T13:30:03.375Z,23.4
2022-10-18T13:45:02.438Z,23.5
2022-10-18T14:00:04.650Z,23.5
2022-10-18T14:30:04.411Z,23.5
2022-10-18T14:45:05.318Z,23.5
2022-10-18T15:00:03.613Z,23.5
2022-10-18T15:15:02.108Z,23.5
2022-10-18T15:30:05.313Z,23.6
2022-10-18T15:45:01.638Z,23.6
2022-10-18T16:00:05.439Z,23.5
2022-10-18T16:15:02.194Z,23.5
2022-10-18T16:30:02.403Z,23.5
2022-10-18T16:45:01.616Z,23.5
2022-10-18T17:15:05.145Z,23.7
2022-10-18T17:30:03.476Z,23.8
2022-10-18T17:45:04.519Z,23.8
2022-10-18T18:00:02.427Z,23.9
2022-10-18T18:15:03.616Z,23.9
2022-10-18T18:30:02.689Z,23.9
2022-10-18T18:45:05.288Z,23.9
2022-10-18T19:00:04.584Z,24
2022-10-18T19:15:01.449Z,24
2022-10-18T19:30:01.214Z,24
2022-10-18T19:45:03.644Z,24.1
2022-10-18T20:00:02.649Z,24.1
2022-10-18T20:15:05.232Z,24
2022-10-18T20:30:02.451Z,24
2022-10-18T20:45:02.647Z,24
2022-10-18T21:00:04.300Z,24
2022-10-18T21:15:05.193Z,24
2022-10-18T21:30:03.559Z,23.9
2022-10-18T21:45:01.615Z,23.8
2022-10-18T22:15:04.366Z,23.7
2022-10-18T22:30:05.294Z,23.6
2022-10-18T22:45:05.528Z,23.5
2022-10-18T23:00:01.289Z,23.4
2022-10-18T23:30:05.553Z,23.3
2022-10-18T23:45:01.298Z,23.2
